Glasgow, Missouri
Current Conditions -  °F | °C
As of 10:15 AM on Friday 24 Oct 2014 (Local Time) from KVER Reporting Station
Overcast Overcast  
Wind Chill: 17°   Ceiling: 2500
Heat Index: 17°   Visibility: 10mi
Dew Point: 15°   Wind: 6mph
Humidity: 89%   Direction: 180°S
Pressure: 30.1"   Gusts: NA
Location:  39.23°N, 92.85°W
Report Text: KVER 241515Z AUTO 18005KT 10SM SCT010 BKN025 OVC034 17/15 A3010 RMK AO2 T01720154
Loading
Personal Weather Stations






























Interactive Weather Map
Tropical Storm Tracking
New forecast layout! Learn more

10-Day Weather Forecast

Advertisements
Track Severe Weather on mobile